Time;durP1;ratioP1;P1;durP2;ratioP2;P2;SDS_P1;SDS_P2;PMS_P1;PMS_P2;Temp;Humidity;BMP_temperature;BMP_pressure;BME280_temperature;BME280_humidity;BME280_pressure;Samples;Min_cycle;Max_cycle;Signal;HPM_P1;HPM_P2
2021/09/14 00:01:42;;;;;;;5.65;1.80;;;12.90;99.90;;;;;;4911916;29;20025;-81
2021/09/14 00:04:08;;;;;;;3.10;1.33;;;12.80;99.90;;;;;;4910953;29;20446;-80
2021/09/14 00:06:38;;;;;;;7.80;1.85;;;12.90;99.90;;;;;;4911747;29;20037;-81
2021/09/14 00:09:04;;;;;;;9.00;1.92;;;12.80;99.90;;;;;;4910830;29;20047;-81
2021/09/14 00:11:30;;;;;;;13.23;2.42;;;12.80;99.90;;;;;;4910624;29;20029;-82
2021/09/14 00:13:56;;;;;;;9.40;1.67;;;12.80;99.90;;;;;;4911587;29;20027;-82
2021/09/14 00:16:21;;;;;;;4.43;2.17;;;12.80;99.90;;;;;;4911982;29;20040;-82
2021/09/14 00:18:48;;;;;;;3.25;1.98;;;12.80;99.90;;;;;;4912011;29;20156;-82
2021/09/14 00:21:13;;;;;;;4.38;1.80;;;12.70;99.90;;;;;;4910422;29;20062;-80
2021/09/14 00:23:39;;;;;;;9.40;2.10;;;12.80;99.90;;;;;;4911952;29;20039;-81
2021/09/14 00:26:04;;;;;;;12.40;2.28;;;12.70;99.90;;;;;;4925917;29;20044;-83
2021/09/14 00:28:30;;;;;;;3.40;1.95;;;12.60;99.90;;;;;;4910305;29;20032;-80
2021/09/14 00:30:55;;;;;;;4.05;1.90;;;12.60;99.90;;;;;;4911634;29;20080;-81
2021/09/14 00:33:21;;;;;;;3.92;2.10;;;12.70;99.90;;;;;;4911410;29;20029;-81
2021/09/14 00:35:46;;;;;;;4.82;2.28;;;12.70;99.90;;;;;;4911507;29;20028;-82
2021/09/14 00:38:13;;;;;;;11.57;2.15;;;12.70;99.90;;;;;;4911827;29;20024;-83
2021/09/14 00:40:39;;;;;;;5.75;2.55;;;12.70;99.90;;;;;;4911328;29;20028;-82
2021/09/14 00:43:05;;;;;;;7.07;2.58;;;12.60;99.90;;;;;;4911751;29;20047;-82
2021/09/14 00:45:30;;;;;;;5.97;2.65;;;12.60;99.90;;;;;;4916068;29;20474;-81
2021/09/14 00:47:56;;;;;;;4.93;2.33;;;12.60;99.90;;;;;;4929913;29;20048;-81
2021/09/14 00:50:22;;;;;;;5.47;2.33;;;12.70;99.90;;;;;;4912984;29;20059;-82
2021/09/14 00:52:47;;;;;;;7.38;3.15;;;12.60;99.90;;;;;;4930417;29;20088;-81
2021/09/14 00:55:13;;;;;;;6.65;2.50;;;12.60;99.90;;;;;;4929879;29;20024;-81
2021/09/14 00:57:39;;;;;;;6.63;2.83;;;12.60;99.90;;;;;;4913298;29;20115;-84
2021/09/14 01:00:06;;;;;;;5.68;2.47;;;12.50;99.90;;;;;;4929838;29;20051;-81
2021/09/14 01:02:31;;;;;;;7.57;3.17;;;12.50;99.90;;;;;;4912369;29;20063;-81
2021/09/14 01:04:57;;;;;;;5.30;3.30;;;12.60;99.90;;;;;;4928986;29;20055;-81
2021/09/14 01:07:23;;;;;;;7.93;3.03;;;12.50;99.90;;;;;;4913038;29;20032;-81
2021/09/14 01:09:50;;;;;;;8.32;3.13;;;12.50;99.90;;;;;;4929866;29;20028;-81
2021/09/14 01:12:18;;;;;;;8.05;2.97;;;12.50;99.90;;;;;;4930008;29;20048;-81
2021/09/14 01:14:56;;;;;;;6.50;3.00;;;12.50;99.90;;;;;;4929918;29;20460;-82
2021/09/14 01:17:22;;;;;;;12.98;3.03;;;12.50;99.90;;;;;;4929440;29;20032;-80
2021/09/14 01:19:48;;;;;;;5.57;2.90;;;12.40;99.90;;;;;;4929621;29;20035;-80
2021/09/14 01:22:15;;;;;;;19.48;3.50;;;12.40;99.90;;;;;;4929746;29;20028;-82
2021/09/14 01:24:41;;;;;;;8.68;3.20;;;12.40;99.90;;;;;;4912644;29;20533;-82
2021/09/14 01:27:07;;;;;;;8.95;2.83;;;12.40;99.90;;;;;;4929612;29;20051;-82
2021/09/14 01:32:17;;;;;;;6.97;2.97;;;12.40;99.90;;;;;;4929080;29;20552;-81
2021/09/14 01:34:43;;;;;;;6.93;3.15;;;12.40;99.90;;;;;;4929602;29;20036;-82
2021/09/14 01:37:09;;;;;;;9.43;3.70;;;12.30;99.90;;;;;;4912390;29;20032;-81
2021/09/14 01:39:34;;;;;;;7.72;3.22;;;12.40;99.90;;;;;;4911597;29;20031;-83
2021/09/14 01:42:00;;;;;;;15.88;3.80;;;12.30;99.90;;;;;;4929198;29;20028;-80
2021/09/14 01:44:25;;;;;;;5.60;2.45;;;12.40;99.90;;;;;;4912205;29;20024;-82
2021/09/14 01:46:52;;;;;;;4.85;3.15;;;12.30;99.90;;;;;;4928208;29;20095;-82
2021/09/14 01:49:18;;;;;;;6.70;3.05;;;12.30;99.90;;;;;;4929150;29;20024;-79
2021/09/14 01:51:44;;;;;;;7.10;3.08;;;12.30;99.90;;;;;;4912294;29;20032;-79
2021/09/14 01:54:09;;;;;;;7.82;2.80;;;12.30;99.90;;;;;;4911665;29;20122;-82
2021/09/14 01:56:35;;;;;;;7.60;2.75;;;12.30;99.90;;;;;;4911788;29;20095;-79
2021/09/14 01:59:01;;;;;;;12.65;2.95;;;12.40;99.90;;;;;;4928886;29;20028;-79
2021/09/14 02:01:34;;;;;;;5.20;2.65;;;12.30;99.90;;;;;;4928564;29;20096;-80
2021/09/14 02:04:11;;;;;;;5.45;2.53;;;12.30;99.90;;;;;;4911644;29;20052;-81
2021/09/14 02:38:23;;;;;;;13.13;2.33;;;12.40;99.90;;;;;;4928531;29;20039;-80
2021/09/14 02:42:22;;;;;;;10.60;2.60;;;12.40;99.90;;;;;;4928031;29;20040;-78
2021/09/14 03:00:53;;;;;;;9.85;2.88;;;12.30;99.90;;;;;;4928453;29;20120;-81
2021/09/14 03:03:19;;;;;;;5.55;2.53;;;12.30;99.90;;;;;;4927807;29;20040;-79
2021/09/14 03:05:45;;;;;;;6.72;2.47;;;12.30;99.90;;;;;;4928132;29;20047;-82
2021/09/14 03:08:10;;;;;;;4.05;2.40;;;12.30;99.90;;;;;;4928207;29;20091;-81
2021/09/14 03:10:36;;;;;;;6.72;2.75;;;12.30;99.90;;;;;;4910775;29;20033;-80
2021/09/14 03:13:02;;;;;;;13.25;2.55;;;12.20;99.90;;;;;;4911016;29;20051;-80
2021/09/14 03:15:27;;;;;;;5.18;2.45;;;12.20;99.90;;;;;;4910662;29;20109;-81
2021/09/14 03:17:53;;;;;;;4.32;2.15;;;12.20;99.90;;;;;;4910794;29;20036;-80
2021/09/14 03:20:18;;;;;;;4.80;2.40;;;12.20;99.90;;;;;;4910885;29;20035;-80
2021/09/14 03:22:44;;;;;;;4.55;2.15;;;12.20;99.90;;;;;;4927525;29;20024;-82
2021/09/14 03:25:10;;;;;;;10.80;2.72;;;12.20;99.90;;;;;;4910899;29;20028;-82
2021/09/14 03:27:36;;;;;;;6.80;2.53;;;12.20;99.90;;;;;;4910873;29;20032;-81
2021/09/14 03:30:03;;;;;;;6.95;3.15;;;12.20;99.90;;;;;;4931317;29;20748;-81
2021/09/14 03:32:29;;;;;;;6.00;2.53;;;12.20;99.90;;;;;;4914415;29;20028;-79
2021/09/14 03:34:54;;;;;;;4.05;2.33;;;12.20;99.90;;;;;;4931379;29;20029;-81
2021/09/14 03:37:20;;;;;;;6.40;2.95;;;12.20;99.90;;;;;;4931463;29;20079;-80
2021/09/14 03:39:45;;;;;;;4.80;2.47;;;12.20;99.90;;;;;;4931747;29;20024;-81
2021/09/14 03:42:11;;;;;;;10.63;2.58;;;12.20;99.90;;;;;;4931648;29;20432;-80
2021/09/14 03:44:37;;;;;;;5.68;2.40;;;12.20;99.90;;;;;;4914157;29;20040;-81
2021/09/14 03:47:03;;;;;;;6.93;2.40;;;12.20;99.90;;;;;;4930995;29;20056;-80
2021/09/14 03:49:28;;;;;;;4.25;2.30;;;12.20;99.90;;;;;;4931150;29;20121;-80
2021/09/14 03:51:54;;;;;;;7.22;2.60;;;12.20;99.90;;;;;;4914146;29;20032;-81
2021/09/14 03:54:19;;;;;;;7.15;3.10;;;12.20;99.90;;;;;;4931366;29;20051;-81
2021/09/14 03:56:45;;;;;;;4.10;2.05;;;12.20;99.90;;;;;;4914194;29;20036;-81
2021/09/14 03:59:11;;;;;;;7.35;2.65;;;12.20;99.90;;;;;;4912661;29;20034;-82
2021/09/14 04:01:39;;;;;;;6.97;3.08;;;12.20;99.90;;;;;;4924119;29;20043;-81
2021/09/14 04:04:18;;;;;;;12.02;2.70;;;12.20;99.90;;;;;;4913690;29;20032;-79
2021/09/14 04:09:21;;;;;;;7.88;2.33;;;12.20;99.90;;;;;;4931186;29;20035;-81
2021/09/14 04:11:50;;;;;;;6.63;3.10;;;12.20;99.90;;;;;;4930921;29;20032;-80
2021/09/14 04:14:16;;;;;;;6.03;3.00;;;12.10;99.90;;;;;;4910601;29;20052;-80
2021/09/14 04:16:43;;;;;;;8.20;2.58;;;12.10;99.90;;;;;;4912226;29;20040;-82
2021/09/14 04:19:09;;;;;;;12.55;2.88;;;12.10;99.90;;;;;;4910300;29;20131;-79
2021/09/14 04:21:34;;;;;;;5.85;2.70;;;12.10;99.90;;;;;;4910610;29;20072;-81
2021/09/14 04:24:00;;;;;;;5.85;2.90;;;12.20;99.90;;;;;;4922081;29;20039;-82
2021/09/14 04:26:25;;;;;;;7.90;4.03;;;12.00;99.90;;;;;;4930222;29;20505;-80
2021/09/14 04:28:51;;;;;;;6.35;3.38;;;12.00;99.90;;;;;;4913451;29;20035;-82
2021/09/14 04:31:17;;;;;;;6.65;3.10;;;11.90;99.90;;;;;;4913768;29;20039;-80
2021/09/14 04:33:42;;;;;;;7.65;3.75;;;12.00;99.90;;;;;;4932059;29;20036;-81
2021/09/14 04:36:08;;;;;;;6.18;3.00;;;12.00;99.90;;;;;;4933148;29;20036;-81
2021/09/14 04:38:34;;;;;;;7.20;3.25;;;11.90;99.90;;;;;;4930088;29;20039;-81
2021/09/14 04:40:59;;;;;;;9.48;3.25;;;11.90;99.90;;;;;;4928916;29;20028;-81
2021/09/14 04:43:25;;;;;;;6.60;3.35;;;11.90;99.90;;;;;;4928984;29;20039;-81
2021/09/14 04:45:51;;;;;;;11.48;3.03;;;11.90;99.90;;;;;;4912479;29;20056;-81
2021/09/14 04:48:17;;;;;;;12.85;3.25;;;11.90;99.90;;;;;;4929717;29;20097;-85
2021/09/14 04:50:43;;;;;;;9.45;2.70;;;11.80;99.90;;;;;;4929422;29;20032;-81
2021/09/14 04:53:09;;;;;;;10.68;3.05;;;11.80;99.90;;;;;;4913300;29;20068;-80
2021/09/14 04:55:34;;;;;;;5.68;2.75;;;11.80;99.90;;;;;;4930107;29;20032;-83
2021/09/14 04:58:00;;;;;;;15.05;3.72;;;11.90;99.90;;;;;;4929967;29;20028;-81
2021/09/14 05:00:26;;;;;;;5.65;3.05;;;11.80;99.90;;;;;;4929116;29;20039;-82
2021/09/14 05:02:53;;;;;;;4.22;2.70;;;11.80;99.90;;;;;;4912152;29;20097;-82
2021/09/14 05:05:19;;;;;;;12.07;2.97;;;11.80;99.90;;;;;;4913059;29;20060;-80
2021/09/14 05:07:47;;;;;;;5.72;3.17;;;11.80;99.90;;;;;;4929891;29;20036;-83
2021/09/14 05:10:13;;;;;;;6.88;3.13;;;11.80;99.90;;;;;;4912503;29;20028;-80
2021/09/14 05:12:39;;;;;;;5.45;2.92;;;11.80;99.90;;;;;;4930229;29;20111;-81
2021/09/14 05:15:05;;;;;;;6.13;2.33;;;11.80;99.90;;;;;;4928896;29;20428;-81
2021/09/14 05:17:30;;;;;;;9.73;3.15;;;11.80;99.90;;;;;;4929385;29;20035;-81
2021/09/14 05:19:56;;;;;;;8.90;2.85;;;11.80;99.90;;;;;;4912048;29;20088;-84
2021/09/14 05:22:29;;;;;;;7.35;3.30;;;11.90;99.90;;;;;;4929718;29;20035;-83
2021/09/14 05:24:55;;;;;;;8.90;2.63;;;11.90;99.90;;;;;;4928526;29;20168;-78
2021/09/14 05:27:20;;;;;;;6.13;2.80;;;11.90;99.90;;;;;;4929572;29;20052;-78
2021/09/14 05:29:46;;;;;;;6.88;2.78;;;12.00;99.90;;;;;;4929628;29;20392;-78
2021/09/14 05:32:14;;;;;;;5.93;3.13;;;12.00;99.90;;;;;;4921953;29;20042;-79
2021/09/14 05:34:39;;;;;;;7.63;3.13;;;12.00;99.90;;;;;;4925024;29;20032;-78
2021/09/14 05:37:05;;;;;;;7.57;3.20;;;12.10;99.90;;;;;;4921018;29;20036;-78
2021/09/14 05:39:31;;;;;;;9.48;3.35;;;12.10;99.90;;;;;;4899504;29;20107;-78
2021/09/14 05:42:02;;;;;;;7.90;2.80;;;12.10;99.90;;;;;;4904313;29;20047;-79
2021/09/14 05:44:28;;;;;;;6.97;2.85;;;12.10;99.90;;;;;;4914570;29;20063;-78
2021/09/14 05:46:54;;;;;;;8.00;3.47;;;12.20;99.90;;;;;;4907807;29;20066;-78
2021/09/14 05:49:19;;;;;;;11.30;3.45;;;12.20;99.90;;;;;;4921035;29;20060;-78
2021/09/14 05:51:45;;;;;;;6.55;2.83;;;12.20;99.90;;;;;;4908212;29;20112;-78
2021/09/14 05:54:11;;;;;;;5.75;2.97;;;12.20;99.90;;;;;;4911439;29;20028;-77
2021/09/14 05:56:38;;;;;;;5.20;2.55;;;12.30;99.90;;;;;;4895703;29;20036;-77
2021/09/14 05:59:03;;;;;;;8.90;3.00;;;12.30;99.90;;;;;;4910754;29;20041;-76
2021/09/14 06:01:29;;;;;;;5.50;2.65;;;12.30;99.90;;;;;;4893941;29;20029;-76
2021/09/14 06:03:55;;;;;;;10.38;3.47;;;12.40;99.90;;;;;;4924420;29;20036;-77
2021/09/14 06:06:22;;;;;;;6.47;3.13;;;12.40;99.90;;;;;;4928924;29;20067;-76
2021/09/14 06:08:47;;;;;;;10.80;3.50;;;12.40;99.90;;;;;;4929188;29;20060;-77
2021/09/14 06:11:13;;;;;;;8.25;2.97;;;12.50;99.90;;;;;;4930111;29;20028;-77
2021/09/14 06:13:40;;;;;;;9.82;4.00;;;12.50;99.90;;;;;;4911140;29;20104;-77
2021/09/14 06:16:06;;;;;;;5.25;3.08;;;12.60;99.90;;;;;;4912404;29;20028;-78
2021/09/14 06:18:32;;;;;;;10.90;3.17;;;12.60;99.90;;;;;;4929450;29;20055;-78
2021/09/14 06:20:57;;;;;;;8.18;3.35;;;12.60;99.90;;;;;;4929069;29;20036;-77
2021/09/14 06:23:23;;;;;;;8.15;3.63;;;12.60;99.90;;;;;;4927686;29;20438;-77
2021/09/14 06:25:49;;;;;;;9.52;3.30;;;12.70;99.90;;;;;;4908947;29;20068;-77
2021/09/14 06:28:14;;;;;;;9.43;2.95;;;12.70;99.90;;;;;;4926589;29;20465;-76
2021/09/14 06:30:44;;;;;;;7.72;3.53;;;12.80;99.90;;;;;;4913261;29;20036;-78
2021/09/14 06:33:10;;;;;;;4.22;2.45;;;12.80;99.90;;;;;;4912847;29;20075;-77
2021/09/14 06:35:35;;;;;;;4.78;2.78;;;12.90;99.90;;;;;;4929346;29;20039;-78
2021/09/14 06:38:02;;;;;;;15.00;3.08;;;12.90;99.90;;;;;;4929422;29;20024;-77
2021/09/14 06:40:28;;;;;;;6.25;3.10;;;13.00;99.90;;;;;;4928897;29;20036;-78
2021/09/14 06:42:53;;;;;;;6.30;2.72;;;13.00;99.90;;;;;;4912063;29;20062;-77
2021/09/14 06:45:19;;;;;;;7.97;3.13;;;13.10;99.90;;;;;;4910983;29;20059;-79
2021/09/14 06:47:45;;;;;;;5.53;2.65;;;13.20;99.90;;;;;;4912050;29;20078;-80
2021/09/14 06:50:11;;;;;;;5.10;2.67;;;13.20;99.90;;;;;;4929126;29;20092;-78
2021/09/14 06:52:38;;;;;;;6.95;2.85;;;13.30;99.90;;;;;;4912223;29;20036;-79
2021/09/14 06:55:05;;;;;;;12.88;3.65;;;13.40;99.90;;;;;;4928633;29;20028;-78
2021/09/14 06:57:30;;;;;;;5.88;2.80;;;13.40;99.90;;;;;;4928955;29;20028;-77
2021/09/14 06:59:56;;;;;;;6.10;3.05;;;13.50;99.90;;;;;;4912036;29;20028;-78
2021/09/14 07:02:21;;;;;;;6.35;2.88;;;13.60;99.90;;;;;;4911202;29;20060;-78
2021/09/14 07:04:47;;;;;;;4.05;2.47;;;13.80;99.90;;;;;;4911617;29;20371;-78
2021/09/14 07:07:14;;;;;;;5.82;2.90;;;13.80;99.90;;;;;;4928785;29;20047;-78
2021/09/14 07:09:40;;;;;;;9.30;2.97;;;13.80;99.90;;;;;;4928264;29;20123;-78
2021/09/14 07:12:06;;;;;;;11.70;3.25;;;14.00;99.90;;;;;;4911757;29;20028;-78
2021/09/14 07:14:32;;;;;;;7.53;2.35;;;14.00;99.90;;;;;;4928880;29;20032;-78
2021/09/14 07:16:57;;;;;;;6.75;2.72;;;14.00;99.90;;;;;;4928202;29;20385;-78
2021/09/14 07:19:23;;;;;;;6.03;3.15;;;14.20;99.90;;;;;;4928368;29;20059;-78
2021/09/14 07:21:52;;;;;;;6.32;2.92;;;14.20;99.90;;;;;;4911502;29;20095;-79
2021/09/14 07:24:18;;;;;;;4.97;2.58;;;14.30;99.90;;;;;;4929355;29;20032;-77
2021/09/14 07:26:45;;;;;;;4.93;2.67;;;14.40;99.90;;;;;;4928820;29;20046;-78
2021/09/14 07:29:10;;;;;;;11.43;2.75;;;14.50;99.90;;;;;;4929129;29;20028;-77
2021/09/14 07:31:40;;;;;;;7.68;2.80;;;14.60;99.90;;;;;;4911235;29;20024;-77
2021/09/14 07:34:05;;;;;;;3.47;1.90;;;14.70;99.90;;;;;;4928974;29;20055;-78
2021/09/14 07:36:31;;;;;;;11.65;2.72;;;14.80;99.90;;;;;;4928237;29;20069;-77
2021/09/14 07:38:57;;;;;;;3.97;2.30;;;14.90;99.90;;;;;;4928365;29;20039;-78
2021/09/14 07:41:23;;;;;;;9.30;2.38;;;15.00;99.90;;;;;;4911302;29;20032;-77
2021/09/14 07:43:49;;;;;;;4.97;3.00;;;15.10;99.90;;;;;;4928246;29;20032;-79
2021/09/14 07:46:15;;;;;;;7.05;2.72;;;15.10;99.90;;;;;;4928564;29;20080;-79
2021/09/14 07:48:41;;;;;;;8.35;2.97;;;15.10;99.90;;;;;;4927908;29;20167;-79
2021/09/14 07:51:07;;;;;;;4.43;2.55;;;15.30;99.90;;;;;;4927360;29;20020;-79
2021/09/14 07:53:32;;;;;;;8.95;3.67;;;15.40;99.90;;;;;;4928097;29;20032;-78
2021/09/14 07:55:58;;;;;;;9.18;3.13;;;15.60;99.90;;;;;;4928391;29;20055;-79
2021/09/14 07:58:27;;;;;;;7.70;2.13;;;15.80;99.90;;;;;;4927908;29;20032;-80
2021/09/14 08:00:52;;;;;;;5.53;2.58;;;16.00;99.90;;;;;;4909080;29;20024;-82
2021/09/14 08:03:18;;;;;;;4.03;2.58;;;16.10;99.90;;;;;;4911266;29;20033;-79
2021/09/14 08:05:43;;;;;;;6.55;2.67;;;16.30;99.90;;;;;;4910664;29;20048;-80
2021/09/14 08:08:09;;;;;;;5.55;2.20;;;16.40;99.90;;;;;;4905352;29;20036;-76
2021/09/14 08:10:35;;;;;;;6.45;2.35;;;16.50;99.90;;;;;;4910228;29;20032;-77
2021/09/14 08:13:02;;;;;;;6.15;3.03;;;16.60;99.90;;;;;;4910625;29;20059;-79
2021/09/14 08:15:28;;;;;;;5.05;1.92;;;16.70;99.90;;;;;;4928741;29;20043;-77
2021/09/14 08:17:53;;;;;;;5.18;2.58;;;16.80;99.90;;;;;;4927540;29;20036;-79
2021/09/14 08:20:20;;;;;;;7.30;2.80;;;16.90;99.90;;;;;;4918793;29;20059;-80
2021/09/14 08:22:45;;;;;;;5.25;2.20;;;17.00;99.90;;;;;;4917948;29;20040;-79
2021/09/14 08:25:11;;;;;;;5.78;2.72;;;17.10;99.90;;;;;;4918515;29;20040;-79
2021/09/14 08:27:37;;;;;;;9.85;2.83;;;17.00;99.90;;;;;;4911218;29;20044;-79
2021/09/14 08:30:04;;;;;;;8.15;2.80;;;17.20;99.90;;;;;;4916361;29;20055;-79
2021/09/14 08:32:30;;;;;;;6.47;2.63;;;17.30;99.90;;;;;;4910930;29;20048;-79
2021/09/14 08:34:55;;;;;;;4.32;2.20;;;17.40;99.90;;;;;;4925162;29;20033;-78
2021/09/14 08:37:21;;;;;;;3.20;1.90;;;17.40;99.90;;;;;;4899358;29;20029;-79
2021/09/14 08:39:48;;;;;;;8.02;2.40;;;17.50;99.90;;;;;;4912028;29;20036;-82
2021/09/14 08:42:14;;;;;;;5.05;2.47;;;17.60;99.90;;;;;;4912201;29;20047;-78
2021/09/14 08:44:42;;;;;;;7.30;2.80;;;17.70;99.90;;;;;;4911692;29;20032;-78
2021/09/14 08:47:08;;;;;;;5.07;2.45;;;17.80;99.90;;;;;;4910593;29;20096;-79
2021/09/14 08:49:35;;;;;;;6.70;2.78;;;17.90;99.90;;;;;;4894891;29;20029;-81
2021/09/14 08:52:07;;;;;;;6.20;2.47;;;18.00;99.90;;;;;;4901681;29;20051;-82
2021/09/14 08:54:33;;;;;;;6.13;2.20;;;18.00;99.90;;;;;;4913352;29;20032;-78
2021/09/14 08:56:58;;;;;;;5.50;2.50;;;18.10;99.90;;;;;;4895969;29;20044;-79
2021/09/14 08:59:32;;;;;;;6.47;2.65;;;18.20;99.90;;;;;;4903386;29;20025;-80
2021/09/14 09:02:04;;;;;;;6.00;2.38;;;18.30;99.90;;;;;;4917713;29;20044;-77
2021/09/14 09:04:30;;;;;;;11.15;2.28;;;18.40;99.90;;;;;;4902284;29;20104;-77
2021/09/14 09:06:56;;;;;;;5.22;2.80;;;18.60;99.90;;;;;;4916544;29;20045;-78
2021/09/14 09:09:23;;;;;;;5.60;2.30;;;18.70;99.90;;;;;;4906734;29;20101;-78
2021/09/14 09:11:58;;;;;;;7.18;2.53;;;18.80;99.90;;;;;;4926487;29;20032;-78
2021/09/14 09:14:44;;;;;;;5.95;2.80;;;18.90;99.90;;;;;;4910726;29;20051;-77
2021/09/14 09:17:16;;;;;;;4.65;2.45;;;18.90;99.90;;;;;;4901400;29;20032;-79
2021/09/14 09:19:53;;;;;;;3.63;2.00;;;19.00;99.90;;;;;;4923941;29;20028;-78
2021/09/14 09:22:19;;;;;;;5.53;2.25;;;19.00;99.90;;;;;;4912637;29;20400;-79
2021/09/14 09:24:48;;;;;;;3.90;2.17;;;19.10;99.90;;;;;;4929965;29;20038;-79
2021/09/14 09:27:19;;;;;;;7.68;2.78;;;19.20;99.90;;;;;;4929112;29;20053;-79
2021/09/14 09:30:05;;;;;;;11.05;3.20;;;19.30;99.90;;;;;;4912583;29;20044;-73
2021/09/14 09:32:46;;;;;;;3.80;2.30;;;19.40;99.90;;;;;;4912304;29;20056;-75
2021/09/14 09:35:23;;;;;;;6.97;2.45;;;19.50;99.90;;;;;;4922056;29;20072;-77
2021/09/14 09:37:53;;;;;;;7.00;2.92;;;19.50;99.90;;;;;;4928973;29;20091;-77
2021/09/14 09:40:26;;;;;;;4.40;2.55;;;19.60;99.90;;;;;;4929823;29;20062;-78
2021/09/14 09:42:51;;;;;;;4.03;2.28;;;19.70;99.90;;;;;;4929004;29;20032;-78
2021/09/14 09:45:19;;;;;;;6.22;2.47;;;19.80;99.90;;;;;;4929209;29;20050;-79
2021/09/14 09:47:48;;;;;;;4.28;2.40;;;19.80;99.90;;;;;;4929011;29;20084;-79
2021/09/14 09:50:13;;;;;;;3.30;2.22;;;19.90;99.90;;;;;;4912241;29;20100;-79
2021/09/14 09:52:40;;;;;;;4.10;2.40;;;20.00;99.90;;;;;;4912214;29;20032;-79
2021/09/14 09:55:07;;;;;;;6.75;3.20;;;20.00;99.90;;;;;;4912180;29;20397;-74
2021/09/14 09:57:33;;;;;;;6.68;3.10;;;20.10;99.90;;;;;;4929085;29;20036;-77
2021/09/14 09:59:59;;;;;;;4.35;2.67;;;20.10;99.90;;;;;;4912326;29;20111;-79
2021/09/14 10:02:26;;;;;;;3.92;2.53;;;20.20;99.90;;;;;;4911574;29;20103;-80
2021/09/14 10:04:59;;;;;;;4.70;2.80;;;20.30;99.90;;;;;;4911551;29;20032;-78
2021/09/14 10:07:27;;;;;;;5.80;2.65;;;20.40;99.90;;;;;;4911174;29;20052;-81
2021/09/14 10:09:54;;;;;;;8.13;2.88;;;20.60;99.90;;;;;;4928566;29;20020;-82
2021/09/14 10:12:22;;;;;;;8.23;2.95;;;20.60;99.90;;;;;;4929032;29;20032;-78
2021/09/14 10:15:02;;;;;;;8.70;2.53;;;20.70;99.90;;;;;;4928824;29;20036;-79
2021/09/14 10:17:29;;;;;;;4.97;2.83;;;20.80;99.90;;;;;;4928522;29;20044;-78
2021/09/14 10:19:55;;;;;;;14.90;3.03;;;21.00;99.90;;;;;;4928126;29;20374;-80
2021/09/14 10:22:24;;;;;;;6.93;2.50;;;21.10;99.90;;;;;;4911588;29;20473;-80
2021/09/14 10:24:51;;;;;;;7.57;2.75;;;21.30;99.90;;;;;;4908151;29;20119;-75
2021/09/14 10:27:17;;;;;;;14.05;3.30;;;21.40;99.90;;;;;;4896794;29;20056;-76
2021/09/14 10:29:54;;;;;;;7.07;2.70;;;21.60;99.90;;;;;;4906608;29;20032;-79
2021/09/14 10:32:20;;;;;;;5.03;2.90;;;21.80;99.90;;;;;;4912030;29;20032;-77
2021/09/14 10:34:54;;;;;;;7.38;2.78;;;21.80;99.90;;;;;;4912812;29;20024;-77
2021/09/14 10:37:20;;;;;;;8.23;3.33;;;21.70;99.90;;;;;;4909234;29;20073;-77
2021/09/14 10:39:46;;;;;;;5.38;2.55;;;21.60;99.90;;;;;;4913566;29;20269;-77
2021/09/14 10:42:20;;;;;;;8.75;3.20;;;21.80;99.90;;;;;;4928725;29;20035;-74
2021/09/14 10:44:48;;;;;;;;;;;21.90;99.90;;;;;;4911433;29;20044;-81
2021/09/14 10:47:22;;;;;;;8.95;3.05;;;21.80;99.90;;;;;;4911485;29;20002;-80
2021/09/14 10:49:58;;;;;;;4.57;2.40;;;21.80;99.90;;;;;;4928224;29;20066;-80
2021/09/14 10:52:36;;;;;;;5.03;2.83;;;21.90;99.90;;;;;;4909505;29;20513;-79
2021/09/14 10:55:10;;;;;;;5.47;2.60;;;21.80;99.90;;;;;;4893091;29;20123;-78
2021/09/14 10:57:38;;;;;;;5.20;2.80;;;21.80;99.90;;;;;;4909368;29;20033;-78
2021/09/14 11:00:28;;;;;;;5.97;2.97;;;21.70;99.90;;;;;;4892712;29;20032;-77
2021/09/14 11:03:06;;;;;;;6.93;2.60;;;21.70;99.90;;;;;;4909696;29;20157;-73
2021/09/14 11:05:34;;;;;;;6.40;3.50;;;21.80;99.90;;;;;;4892634;29;20385;-80
2021/09/14 11:08:04;;;;;;;7.22;2.83;;;21.90;99.90;;;;;;4893090;29;20025;-79
2021/09/14 11:10:34;;;;;;;6.03;2.85;;;22.00;99.90;;;;;;4908363;29;20036;-79
2021/09/14 11:13:00;;;;;;;6.68;2.95;;;22.20;99.90;;;;;;4908315;29;20029;-79
2021/09/14 11:15:26;;;;;;;10.05;3.15;;;22.30;99.90;;;;;;4915805;29;20032;-74
2021/09/14 11:17:52;;;;;;;5.63;3.15;;;22.50;99.90;;;;;;4928229;29;20031;-77
2021/09/14 11:20:20;;;;;;;6.30;3.15;;;22.60;99.90;;;;;;4928649;29;20039;-77
2021/09/14 11:22:49;;;;;;;6.80;3.25;;;22.70;99.90;;;;;;4928879;29;20061;-76
2021/09/14 11:25:29;;;;;;;4.85;2.65;;;22.80;99.90;;;;;;4928400;29;20051;-79
2021/09/14 11:28:00;;;;;;;7.00;2.60;;;23.00;99.90;;;;;;4911496;29;20032;-79
2021/09/14 11:30:27;;;;;;;3.72;2.20;;;23.20;99.90;;;;;;4928380;29;20036;-77
2021/09/14 11:32:54;;;;;;;5.68;2.83;;;23.30;99.90;;;;;;4927787;29;20036;-76
2021/09/14 11:35:21;;;;;;;12.07;2.53;;;23.40;99.90;;;;;;4911122;29;20055;-78
2021/09/14 11:38:12;;;;;;;9.02;2.50;;;23.50;99.90;;;;;;4922342;29;20080;-77
2021/09/14 11:40:48;;;;;;;4.22;2.58;;;23.60;99.90;;;;;;4924870;29;20036;-81
2021/09/14 11:43:26;;;;;;;6.45;3.33;;;23.70;99.90;;;;;;4928022;29;20042;-79
2021/09/14 11:45:52;;;;;;;7.18;2.63;;;23.50;99.90;;;;;;4928243;29;20615;-79
2021/09/14 11:48:21;;;;;;;5.45;2.53;;;23.60;99.90;;;;;;4911280;29;20119;-74
2021/09/14 11:50:49;;;;;;;4.93;2.42;;;23.70;99.90;;;;;;4915107;29;20036;-77
2021/09/14 11:53:19;;;;;;;4.25;2.50;;;23.70;99.90;;;;;;4932039;29;20028;-74
2021/09/14 11:55:48;;;;;;;7.97;2.90;;;23.70;99.90;;;;;;4931854;29;20056;-80
2021/09/14 11:58:28;;;;;;;4.93;2.60;;;23.70;99.90;;;;;;4915380;29;20136;-78
2021/09/14 12:00:55;;;;;;;7.72;2.83;;;23.70;99.90;;;;;;4914093;29;20036;-81
2021/09/14 12:03:22;;;;;;;8.90;3.30;;;24.00;99.90;;;;;;4914054;29;20043;-79
2021/09/14 12:05:57;;;;;;;7.93;2.92;;;24.30;99.90;;;;;;4930982;29;20047;-79
2021/09/14 12:08:30;;;;;;;4.13;2.83;;;24.30;99.90;;;;;;4913597;29;20067;-78
2021/09/14 12:10:57;;;;;;;5.38;2.65;;;24.40;99.90;;;;;;4931637;29;20028;-78
2021/09/14 12:13:23;;;;;;;7.60;2.63;;;24.50;99.90;;;;;;4914093;29;20063;-77
2021/09/14 12:15:51;;;;;;;5.18;2.58;;;24.70;99.90;;;;;;4931273;29;20036;-72
2021/09/14 12:18:17;;;;;;;5.95;3.25;;;25.00;99.90;;;;;;4931582;29;20031;-74
2021/09/14 12:20:44;;;;;;;5.45;2.90;;;25.20;99.90;;;;;;4931291;29;20032;-75
2021/09/14 12:23:11;;;;;;;5.38;2.80;;;25.40;99.90;;;;;;4913928;29;20057;-77
2021/09/14 12:25:37;;;;;;;5.60;3.15;;;25.50;99.90;;;;;;4914285;29;20107;-76
2021/09/14 12:28:02;;;;;;;9.30;2.92;;;25.60;99.90;;;;;;4931275;29;20064;-80
2021/09/14 12:30:28;;;;;;;5.63;2.53;;;25.70;99.90;;;;;;4913638;29;20157;-81
2021/09/14 12:32:54;;;;;;;4.47;2.33;;;25.90;99.90;;;;;;4931297;29;20028;-78
2021/09/14 12:35:20;;;;;;;3.15;1.98;;;26.10;99.90;;;;;;4931491;29;20032;-79
2021/09/14 12:37:45;;;;;;;3.65;2.40;;;26.30;99.90;;;;;;4913739;29;20029;-80
2021/09/14 12:40:12;;;;;;;4.40;2.58;;;26.50;99.90;;;;;;4931371;29;20040;-82
2021/09/14 12:42:38;;;;;;;4.93;2.50;;;26.50;99.90;;;;;;4914058;29;20036;-79
2021/09/14 12:45:04;;;;;;;3.67;2.63;;;26.60;99.90;;;;;;4913008;29;20036;-79
2021/09/14 12:47:30;;;;;;;5.25;2.40;;;26.70;99.90;;;;;;4930435;29;20044;-74
2021/09/14 12:49:56;;;;;;;2.95;2.15;;;26.70;99.90;;;;;;4930510;29;20055;-76
2021/09/14 12:52:22;;;;;;;7.78;3.08;;;26.60;99.90;;;;;;4930233;29;20033;-76
2021/09/14 12:54:51;;;;;;;5.25;2.90;;;26.80;99.90;;;;;;4931029;29;20036;-77
2021/09/14 12:57:18;;;;;;;5.63;1.95;;;26.80;99.90;;;;;;4930984;29;20024;-79
2021/09/14 12:59:44;;;;;;;6.05;2.63;;;26.60;99.90;;;;;;4930806;29;20035;-78
2021/09/14 13:02:09;;;;;;;5.30;3.00;;;26.30;99.90;;;;;;4913456;29;20075;-79
2021/09/14 13:04:35;;;;;;;5.03;2.70;;;26.00;99.90;;;;;;4913754;29;20039;-75
2021/09/14 13:07:01;;;;;;;3.75;2.17;;;25.90;99.90;;;;;;4929608;29;20044;-77
2021/09/14 13:09:26;;;;;;;4.65;2.70;;;25.80;99.90;;;;;;4930491;29;20039;-78
2021/09/14 13:11:52;;;;;;;4.47;2.50;;;25.90;99.90;;;;;;4913304;29;20028;-75
2021/09/14 13:17:22;;;;;;;4.72;2.85;;;26.40;99.90;;;;;;4871820;29;20132;-75
2021/09/14 13:19:48;;;;;;;5.13;2.60;;;26.50;99.90;;;;;;4871315;29;20491;-78
2021/09/14 13:22:13;;;;;;;3.95;2.00;;;26.60;99.90;;;;;;4898624;29;20039;-74
2021/09/14 13:24:39;;;;;;;3.70;2.38;;;26.80;99.90;;;;;;4930191;29;20122;-76
2021/09/14 13:27:05;;;;;;;4.60;2.55;;;27.10;99.90;;;;;;4929743;29;20044;-78
2021/09/14 13:29:30;;;;;;;4.10;2.33;;;27.40;99.90;;;;;;4929730;29;20441;-77
2021/09/14 13:31:56;;;;;;;6.05;2.95;;;27.70;99.90;;;;;;4912341;29;20039;-78
2021/09/14 13:34:22;;;;;;;4.75;2.80;;;27.70;99.90;;;;;;4929120;29;20039;-75
2021/09/14 13:36:52;;;;;;;6.68;2.35;;;27.90;99.90;;;;;;4929602;29;20092;-74
2021/09/14 13:39:17;;;;;;;3.85;2.22;;;27.80;99.90;;;;;;4929941;29;20036;-78
2021/09/14 13:41:49;;;;;;;3.78;2.38;;;27.70;99.90;;;;;;4912438;29;20168;-75
2021/09/14 13:46:54;;;;;;;4.15;2.50;;;28.10;99.90;;;;;;4929817;29;20054;-73